Time;durP1;ratioP1;P1;durP2;ratioP2;P2;SDS_P1;SDS_P2;PMS_P1;PMS_P2;Temp;Humidity;BMP_temperature;BMP_pressure;BME280_temperature;BME280_humidity;BME280_pressure;Samples;Min_cycle;Max_cycle;Signal;HPM_P1;HPM_P2
2024/01/13 00:01:22;;;;;;;21.50;7.30;;;;;;;-147.86;100.00;-17609.17;105843;1256;71605;-43
2024/01/13 00:03:50;;;;;;;19.70;7.60;;;;;;;-147.86;100.00;-17609.17;105873;1255;60450;-43
2024/01/13 00:06:18;;;;;;;17.60;6.80;;;;;;;-147.86;100.00;-17609.17;105866;1257;60357;-42
2024/01/13 00:08:48;;;;;;;23.60;7.20;;;;;;;-147.86;100.00;-17609.17;105786;1254;72574;-42
2024/01/13 00:11:16;;;;;;;21.30;7.70;;;;;;;-147.86;100.00;-17609.17;109599;1252;65164;-43
2024/01/13 00:13:44;;;;;;;16.50;6.90;;;;;;;-147.86;100.00;-17609.17;109575;1254;71031;-40
2024/01/13 00:16:11;;;;;;;18.80;7.60;;;;;;;-147.86;100.00;-17609.17;109582;1252;61712;-41
2024/01/13 00:18:39;;;;;;;17.00;6.50;;;;;;;-147.86;100.00;-17609.17;109470;1252;58735;-41
2024/01/13 00:21:08;;;;;;;17.40;6.60;;;;;;;-147.86;100.00;-17609.17;109517;1253;73164;-41
2024/01/13 00:23:36;;;;;;;15.80;6.30;;;;;;;-147.86;100.00;-17609.17;109557;1253;64050;-42
2024/01/13 00:26:04;;;;;;;18.60;7.50;;;;;;;-147.86;100.00;-17609.17;109580;1253;72641;-41
2024/01/13 00:28:32;;;;;;;18.70;6.80;;;;;;;-147.86;100.00;-17609.17;109530;1253;61640;-41
2024/01/13 00:31:04;;;;;;;16.00;6.80;;;;;;;-147.86;100.00;-17609.17;109562;1252;60802;-42
2024/01/13 00:33:32;;;;;;;12.50;5.90;;;;;;;-147.86;100.00;-17609.17;109534;1252;73879;-41
2024/01/13 00:36:01;;;;;;;20.10;7.60;;;;;;;-147.86;100.00;-17609.17;109561;1253;65093;-41
2024/01/13 00:38:29;;;;;;;19.70;7.30;;;;;;;-147.86;100.00;-17609.17;109545;1252;72633;-42
2024/01/13 00:41:06;;;;;;;23.20;7.20;;;;;;;-147.86;100.00;-17609.17;109570;1253;61620;-41
2024/01/13 00:43:36;;;;;;;17.50;7.60;;;;;;;-147.86;100.00;-17609.17;109564;1253;60239;-41
2024/01/13 00:46:04;;;;;;;18.90;6.80;;;;;;;-147.86;100.00;-17609.17;109537;1253;73011;-41
2024/01/13 00:48:33;;;;;;;20.70;7.00;;;;;;;-147.86;100.00;-17609.17;109541;1253;64047;-42
2024/01/13 00:51:12;;;;;;;22.30;7.40;;;;;;;-147.86;100.00;-17609.17;109614;1252;72644;-41
2024/01/13 00:53:41;;;;;;;19.50;7.20;;;;;;;-147.86;100.00;-17609.17;109565;1253;59637;-42
2024/01/13 00:56:10;;;;;;;28.80;8.30;;;;;;;-147.86;100.00;-17609.17;109600;1254;58712;-42
2024/01/13 00:58:39;;;;;;;33.10;11.50;;;;;;;-147.86;100.00;-17609.17;109568;1252;74192;-41
2024/01/13 01:01:15;;;;;;;23.20;8.80;;;;;;;-147.86;100.00;-17609.17;109605;1252;64558;-42
2024/01/13 01:07:10;;;;;;;17.40;7.30;;;;;;;-147.86;100.00;-17609.17;102833;1290;600192;-44
2024/01/13 01:09:37;;;;;;;21.60;6.90;;;;;;;-147.86;100.00;-17609.17;105042;1267;59346;-43
2024/01/13 01:12:57;;;;;;;18.30;7.50;;;;;;;-147.86;100.00;-17609.17;102843;1295;601204;-42
2024/01/13 01:15:25;;;;;;;18.90;8.10;;;;;;;-147.86;100.00;-17609.17;108733;1263;60468;-42
2024/01/13 01:17:52;;;;;;;23.00;8.20;;;;;;;-147.86;100.00;-17609.17;108790;1262;58737;-42
2024/01/13 01:20:20;;;;;;;28.40;7.60;;;;;;;-147.86;100.00;-17609.17;108932;1259;72252;-42
2024/01/13 01:22:48;;;;;;;21.00;7.70;;;;;;;-147.86;100.00;-17609.17;108988;1259;64217;-42
2024/01/13 01:25:16;;;;;;;22.40;8.30;;;;;;;-147.86;100.00;-17609.17;108912;1260;71990;-42
2024/01/13 01:27:44;;;;;;;23.00;8.20;;;;;;;-147.86;100.00;-17609.17;108887;1262;213268;-42
2024/01/13 01:30:12;;;;;;;22.30;7.80;;;;;;;-147.86;100.00;-17609.17;109059;1257;58946;-42
2024/01/13 01:32:40;;;;;;;29.40;7.70;;;;;;;-147.86;100.00;-17609.17;109069;1257;70782;-42
2024/01/13 01:35:08;;;;;;;18.40;7.30;;;;;;;-147.86;100.00;-17609.17;109075;1257;63887;-42
2024/01/13 01:37:36;;;;;;;20.50;6.90;;;;;;;-147.86;100.00;-17609.17;109061;1256;71801;-42
2024/01/13 01:40:04;;;;;;;24.20;8.10;;;;;;;-147.86;100.00;-17609.17;109050;1257;61709;-42
2024/01/13 01:42:31;;;;;;;22.50;8.40;;;;;;;-147.86;100.00;-17609.17;109102;1256;59015;-42
2024/01/13 01:44:59;;;;;;;21.20;7.60;;;;;;;-147.86;100.00;-17609.17;109053;1262;73108;-42
2024/01/13 01:47:27;;;;;;;24.10;7.40;;;;;;;-147.86;100.00;-17609.17;109051;1257;65182;-42
2024/01/13 01:49:55;;;;;;;27.30;7.70;;;;;;;-147.86;100.00;-17609.17;109012;1257;72795;-42
2024/01/13 01:52:22;;;;;;;15.60;6.90;;;;;;;-147.86;100.00;-17609.17;109064;1257;59638;-42
2024/01/13 01:54:50;;;;;;;23.30;7.30;;;;;;;-147.86;100.00;-17609.17;109099;1257;60034;-42
2024/01/13 01:57:18;;;;;;;15.30;6.60;;;;;;;-147.86;100.00;-17609.17;109083;1257;73184;-42
2024/01/13 01:59:45;;;;;;;26.30;7.20;;;;;;;-147.86;100.00;-17609.17;109008;1257;64012;-42
2024/01/13 02:02:13;;;;;;;20.60;6.80;;;;;;;-147.86;100.00;-17609.17;109063;1258;72638;-42
2024/01/13 02:07:50;;;;;;;20.70;6.70;;;;;;;-147.86;100.00;-17609.17;103616;1284;600149;-44
2024/01/13 02:10:19;;;;;;;18.10;6.50;;;;;;;-147.86;100.00;-17609.17;105067;1270;59337;-42
2024/01/13 02:12:47;;;;;;;22.50;7.70;;;;;;;-147.86;100.00;-17609.17;104842;1263;60078;-43
2024/01/13 02:15:14;;;;;;;24.90;8.10;;;;;;;-147.86;100.00;-17609.17;105144;1268;71842;-42
2024/01/13 02:17:42;;;;;;;25.60;7.90;;;;;;;-147.86;100.00;-17609.17;105026;1263;63931;-42
2024/01/13 02:20:11;;;;;;;25.00;8.70;;;;;;;-147.86;100.00;-17609.17;105073;1267;71067;-42
2024/01/13 02:22:38;;;;;;;25.90;9.10;;;;;;;-147.86;100.00;-17609.17;105046;1266;229544;-44
2024/01/13 02:25:07;;;;;;;23.20;8.30;;;;;;;-147.86;100.00;-17609.17;108907;1260;60124;-41
2024/01/13 02:27:35;;;;;;;37.90;10.40;;;;;;;-147.86;100.00;-17609.17;108912;1260;71026;-41
2024/01/13 02:30:03;;;;;;;30.30;10.80;;;;;;;-147.86;100.00;-17609.17;108938;1260;65617;-41
2024/01/13 02:32:30;;;;;;;40.60;10.10;;;;;;;-147.86;100.00;-17609.17;108891;1260;72661;-41
2024/01/13 02:34:58;;;;;;;30.70;9.70;;;;;;;-147.86;100.00;-17609.17;108941;1260;61632;-41
2024/01/13 02:37:25;;;;;;;27.30;9.40;;;;;;;-147.86;100.00;-17609.17;108953;1260;58736;-41
2024/01/13 02:39:53;;;;;;;23.90;8.40;;;;;;;-147.86;100.00;-17609.17;108909;1260;73030;-41
2024/01/13 02:42:20;;;;;;;20.30;8.10;;;;;;;-147.86;100.00;-17609.17;108964;1260;65455;-41
2024/01/13 02:44:48;;;;;;;29.20;8.70;;;;;;;-147.86;100.00;-17609.17;108941;1260;71447;-41
2024/01/13 02:47:16;;;;;;;18.50;7.00;;;;;;;-147.86;100.00;-17609.17;108929;1260;61760;-41
2024/01/13 02:49:43;;;;;;;22.50;7.90;;;;;;;-147.86;100.00;-17609.17;108933;1260;58316;-41
2024/01/13 02:52:11;;;;;;;22.80;8.00;;;;;;;-147.86;100.00;-17609.17;108915;1261;73111;-41
2024/01/13 02:54:39;;;;;;;15.80;7.20;;;;;;;-147.86;100.00;-17609.17;108935;1260;63927;-42
2024/01/13 02:57:07;;;;;;;20.50;7.50;;;;;;;-147.86;100.00;-17609.17;108923;1260;71239;-41
2024/01/13 02:59:34;;;;;;;16.90;7.20;;;;;;;-147.86;100.00;-17609.17;108936;1260;59452;-41
2024/01/13 03:02:03;;;;;;;17.40;7.20;;;;;;;-147.86;100.00;-17609.17;108948;1260;58200;-41
2024/01/13 03:07:41;;;;;;;19.80;7.50;;;;;;;-147.86;100.00;-17609.17;102776;1289;599998;-42
2024/01/13 03:10:09;;;;;;;18.40;7.60;;;;;;;-147.86;100.00;-17609.17;104963;1264;61640;-45
2024/01/13 03:12:37;;;;;;;25.20;7.90;;;;;;;-147.86;100.00;-17609.17;105098;1264;60049;-43
2024/01/13 03:15:06;;;;;;;22.20;7.90;;;;;;;-147.86;100.00;-17609.17;105511;1257;71037;-43
2024/01/13 03:17:34;;;;;;;21.20;7.50;;;;;;;-147.86;100.00;-17609.17;105495;1263;63988;-43
2024/01/13 03:20:03;;;;;;;21.20;7.60;;;;;;;-147.86;100.00;-17609.17;105544;1258;71363;-45
2024/01/13 03:22:31;;;;;;;23.80;9.00;;;;;;;-147.86;100.00;-17609.17;105520;1260;210406;-43
2024/01/13 03:24:59;;;;;;;20.40;8.80;;;;;;;-147.86;100.00;-17609.17;105621;1257;59332;-44
2024/01/13 03:27:27;;;;;;;21.60;7.90;;;;;;;-147.86;100.00;-17609.17;105651;1260;72167;-43
2024/01/13 03:29:54;;;;;;;22.70;8.80;;;;;;;-147.86;100.00;-17609.17;105645;1254;65113;-42
2024/01/13 03:32:23;;;;;;;20.10;8.20;;;;;;;-147.86;100.00;-17609.17;105642;1260;71380;-43
2024/01/13 03:34:51;;;;;;;23.10;8.30;;;;;;;-147.86;100.00;-17609.17;105640;1257;60383;-43
2024/01/13 03:37:19;;;;;;;25.20;7.20;;;;;;;-147.86;100.00;-17609.17;105628;1259;59692;-41
2024/01/13 03:39:47;;;;;;;22.00;8.30;;;;;;;-147.86;100.00;-17609.17;105702;1255;73001;-43
2024/01/13 03:42:15;;;;;;;22.50;8.20;;;;;;;-147.86;100.00;-17609.17;105951;1251;65070;-45
2024/01/13 03:44:42;;;;;;;17.70;8.10;;;;;;;-147.86;100.00;-17609.17;105946;1252;71383;-43
2024/01/13 03:47:10;;;;;;;24.40;8.00;;;;;;;-147.86;100.00;-17609.17;105899;1257;60382;-42
2024/01/13 03:49:39;;;;;;;22.20;8.80;;;;;;;-147.86;100.00;-17609.17;105887;1251;60101;-41
2024/01/13 03:52:07;;;;;;;23.30;9.20;;;;;;;-147.86;100.00;-17609.17;105997;1257;73368;-43
2024/01/13 03:54:34;;;;;;;23.40;8.70;;;;;;;-147.86;100.00;-17609.17;105939;1251;64784;-42
2024/01/13 03:57:02;;;;;;;20.60;8.60;;;;;;;-147.86;100.00;-17609.17;106016;1257;70786;-45
2024/01/13 03:59:30;;;;;;;19.90;8.00;;;;;;;-147.86;100.00;-17609.17;105991;1256;60394;-42
2024/01/13 04:01:58;;;;;;;29.50;8.20;;;;;;;-147.86;100.00;-17609.17;109714;1251;59344;-43
2024/01/13 04:07:39;;;;;;;23.00;7.10;;;;;;;-147.86;100.00;-17609.17;102780;1294;600754;-43
2024/01/13 04:10:08;;;;;;;26.00;8.00;;;;;;;-147.86;100.00;-17609.17;105202;1264;59350;-45
2024/01/13 04:12:36;;;;;;;25.50;8.50;;;;;;;-147.86;100.00;-17609.17;105032;1264;59938;-42
2024/01/13 04:15:05;;;;;;;25.10;8.60;;;;;;;-147.86;100.00;-17609.17;105073;1269;72195;-43
2024/01/13 04:17:33;;;;;;;30.70;9.60;;;;;;;-147.86;100.00;-17609.17;105078;1264;65613;-44
2024/01/13 04:20:00;;;;;;;26.50;9.30;;;;;;;-147.86;100.00;-17609.17;105062;1267;71332;-43
2024/01/13 04:22:29;;;;;;;28.00;9.40;;;;;;;-147.86;100.00;-17609.17;105088;1264;206809;-45
2024/01/13 04:24:56;;;;;;;27.30;8.30;;;;;;;-147.86;100.00;-17609.17;105197;1267;59722;-42
2024/01/13 04:27:24;;;;;;;28.60;8.70;;;;;;;-147.86;100.00;-17609.17;105183;1264;70964;-42
2024/01/13 04:29:52;;;;;;;27.30;9.20;;;;;;;-147.86;100.00;-17609.17;105124;1269;64154;-43
2024/01/13 04:32:21;;;;;;;28.90;9.10;;;;;;;-147.86;100.00;-17609.17;105688;1254;72769;-42
2024/01/13 04:34:48;;;;;;;24.60;8.20;;;;;;;-147.86;100.00;-17609.17;105672;1253;61624;-42
2024/01/13 04:37:16;;;;;;;23.10;8.70;;;;;;;-147.86;100.00;-17609.17;105699;1254;59551;-43
2024/01/13 04:39:44;;;;;;;27.10;9.00;;;;;;;-147.86;100.00;-17609.17;105850;1254;72994;-43
2024/01/13 04:42:12;;;;;;;21.70;7.70;;;;;;;-147.86;100.00;-17609.17;105664;1258;65188;-44
2024/01/13 04:44:40;;;;;;;23.90;8.00;;;;;;;-147.86;100.00;-17609.17;105728;1259;71401;-43
2024/01/13 04:47:07;;;;;;;29.40;8.90;;;;;;;-147.86;100.00;-17609.17;105643;1257;61652;-43
2024/01/13 04:49:35;;;;;;;23.00;8.20;;;;;;;-147.86;100.00;-17609.17;105682;1259;59640;-42
2024/01/13 04:52:03;;;;;;;23.60;8.60;;;;;;;-147.86;100.00;-17609.17;105680;1254;73018;-42
2024/01/13 04:54:31;;;;;;;22.50;8.60;;;;;;;-147.86;100.00;-17609.17;105709;1257;65970;-44
2024/01/13 04:57:00;;;;;;;25.30;8.30;;;;;;;-147.86;100.00;-17609.17;105643;1257;71341;-42
2024/01/13 04:59:28;;;;;;;22.80;7.90;;;;;;;-147.86;100.00;-17609.17;105728;1254;60351;-42
2024/01/13 05:01:56;;;;;;;29.60;8.90;;;;;;;-147.86;100.00;-17609.17;105728;1257;59705;-44
2024/01/13 05:04:23;;;;;;;17.10;7.60;;;;;;;-147.86;100.00;-17609.17;105696;1257;73041;-42
2024/01/13 05:06:52;;;;;;;27.50;9.20;;;;;;;-147.86;100.00;-17609.17;105630;1254;63907;-43
2024/01/13 05:09:20;;;;;;;25.80;9.40;;;;;;;-147.86;100.00;-17609.17;105709;1254;72538;-43
2024/01/13 05:11:47;;;;;;;23.60;9.40;;;;;;;-147.86;100.00;-17609.17;105729;1257;60357;-43
2024/01/13 05:14:16;;;;;;;25.30;8.90;;;;;;;-147.86;100.00;-17609.17;105658;1260;59544;-43
2024/01/13 05:16:44;;;;;;;28.70;9.60;;;;;;;-147.86;100.00;-17609.17;105647;1259;72075;-43
2024/01/13 05:19:11;;;;;;;25.30;8.30;;;;;;;-147.86;100.00;-17609.17;105646;1254;63933;-41
2024/01/13 05:21:39;;;;;;;19.80;7.90;;;;;;;-147.86;100.00;-17609.17;105685;1255;71603;-42
2024/01/13 05:24:07;;;;;;;22.40;8.00;;;;;;;-147.86;100.00;-17609.17;105677;1260;61175;-44
2024/01/13 05:26:35;;;;;;;26.10;7.70;;;;;;;-147.86;100.00;-17609.17;105676;1260;59636;-44
2024/01/13 05:29:03;;;;;;;20.50;7.50;;;;;;;-147.86;100.00;-17609.17;105658;1254;73000;-44
2024/01/13 05:31:31;;;;;;;24.90;8.50;;;;;;;-147.86;100.00;-17609.17;105681;1254;64255;-44
2024/01/13 05:33:58;;;;;;;25.20;8.60;;;;;;;-147.86;100.00;-17609.17;105640;1255;70398;-43
2024/01/13 05:36:26;;;;;;;29.00;8.90;;;;;;;-147.86;100.00;-17609.17;105620;1254;60374;-42
2024/01/13 05:38:54;;;;;;;24.10;8.50;;;;;;;-147.86;100.00;-17609.17;105640;1258;59527;-42
2024/01/13 05:41:22;;;;;;;24.30;8.30;;;;;;;-147.86;100.00;-17609.17;105643;1254;70472;-42
2024/01/13 05:43:49;;;;;;;21.90;8.40;;;;;;;-147.86;100.00;-17609.17;105657;1260;64407;-42
2024/01/13 05:46:17;;;;;;;19.80;8.00;;;;;;;-147.86;100.00;-17609.17;105644;1259;71343;-42
2024/01/13 05:48:45;;;;;;;17.50;8.20;;;;;;;-147.86;100.00;-17609.17;105641;1254;61825;-42
2024/01/13 05:51:13;;;;;;;17.10;8.20;;;;;;;-147.86;100.00;-17609.17;105620;1259;59557;-44
2024/01/13 05:53:40;;;;;;;28.30;8.30;;;;;;;-147.86;100.00;-17609.17;105648;1261;72998;-44
2024/01/13 05:56:08;;;;;;;25.60;8.80;;;;;;;-147.86;100.00;-17609.17;105623;1257;63925;-42
2024/01/13 05:58:36;;;;;;;19.00;8.30;;;;;;;-147.86;100.00;-17609.17;105701;1254;70999;-42
2024/01/13 06:01:03;;;;;;;17.60;7.40;;;;;;;-147.86;100.00;-17609.17;105616;1254;60673;-42
2024/01/13 06:03:32;;;;;;;18.40;7.50;;;;;;;-147.86;100.00;-17609.17;105676;1259;59621;-42
2024/01/13 07:08:14;;;;;;;14.00;5.90;;;;;;;-147.86;100.00;-17609.17;102784;1294;600313;-42
2024/01/13 07:10:42;;;;;;;9.50;5.00;;;;;;;-147.86;100.00;-17609.17;105205;1270;59258;-42
2024/01/13 07:13:10;;;;;;;12.60;5.00;;;;;;;-147.86;100.00;-17609.17;105181;1264;60055;-42
2024/01/13 07:15:38;;;;;;;11.10;5.20;;;;;;;-147.86;100.00;-17609.17;105055;1269;69819;-42
2024/01/13 07:18:05;;;;;;;22.30;5.70;;;;;;;-147.86;100.00;-17609.17;105084;1264;64039;-41
2024/01/13 07:20:34;;;;;;;14.20;5.20;;;;;;;-147.86;100.00;-17609.17;105019;1267;71503;-42
2024/01/13 07:23:02;;;;;;;15.70;5.10;;;;;;;-147.86;100.00;-17609.17;105040;1265;189610;-42
2024/01/13 07:25:31;;;;;;;13.50;4.60;;;;;;;-147.86;100.00;-17609.17;105148;1263;59735;-42
2024/01/13 07:27:59;;;;;;;10.60;4.00;;;;;;;-147.86;100.00;-17609.17;105248;1266;70397;-42
2024/01/13 07:30:26;;;;;;;11.90;4.20;;;;;;;-147.86;100.00;-17609.17;105215;1265;64248;-42
2024/01/13 07:32:55;;;;;;;11.70;4.70;;;;;;;-147.86;100.00;-17609.17;105228;1264;71625;-41
2024/01/13 07:35:23;;;;;;;10.40;4.90;;;;;;;-147.86;100.00;-17609.17;105647;1257;59739;-42
2024/01/13 07:37:51;;;;;;;8.00;4.20;;;;;;;-147.86;100.00;-17609.17;105686;1260;59618;-41
2024/01/13 07:40:19;;;;;;;11.70;4.30;;;;;;;-147.86;100.00;-17609.17;105654;1254;73118;-41
2024/01/13 07:42:46;;;;;;;12.60;4.60;;;;;;;-147.86;100.00;-17609.17;105716;1254;63999;-41
2024/01/13 07:45:14;;;;;;;10.90;4.50;;;;;;;-147.86;100.00;-17609.17;105655;1260;72823;-42
2024/01/13 07:47:43;;;;;;;9.10;3.90;;;;;;;-147.86;100.00;-17609.17;105702;1257;59845;-42
2024/01/13 07:50:12;;;;;;;13.20;4.80;;;;;;;-147.86;100.00;-17609.17;105700;1260;59599;-42
2024/01/13 07:52:39;;;;;;;11.90;3.50;;;;;;;-147.86;100.00;-17609.17;105668;1254;71762;-43
2024/01/13 07:55:11;;;;;;;10.70;4.10;;;;;;;-147.86;100.00;-17609.17;105655;1254;63918;-42
2024/01/13 07:57:39;;;;;;;9.00;4.20;;;;;;;-147.86;100.00;-17609.17;105671;1254;72575;-41
2024/01/13 08:00:08;;;;;;;10.60;4.90;;;;;;;-147.86;100.00;-17609.17;105648;1258;59745;-42
2024/01/13 08:02:39;;;;;;;11.90;4.50;;;;;;;-147.86;100.00;-17609.17;105621;1254;59990;-42
2024/01/13 08:05:07;;;;;;;6.80;3.80;;;;;;;-147.86;100.00;-17609.17;105558;1260;70738;-41
2024/01/13 08:07:35;;;;;;;7.70;3.70;;;;;;;-147.86;100.00;-17609.17;105576;1256;64368;-41
2024/01/13 08:10:03;;;;;;;7.50;3.90;;;;;;;-147.86;100.00;-17609.17;105620;1257;71431;-42
2024/01/13 08:12:31;;;;;;;8.80;4.00;;;;;;;-147.86;100.00;-17609.17;105680;1257;59738;-42
2024/01/13 08:14:59;;;;;;;7.00;3.90;;;;;;;-147.86;100.00;-17609.17;105590;1261;59653;-42
2024/01/13 08:17:29;;;;;;;7.90;4.00;;;;;;;-147.86;100.00;-17609.17;105642;1256;71810;-42
2024/01/13 08:19:57;;;;;;;7.20;3.70;;;;;;;-147.86;100.00;-17609.17;105571;1256;63941;-40
2024/01/13 08:22:25;;;;;;;8.20;3.80;;;;;;;-147.86;100.00;-17609.17;105585;1257;71338;-42
2024/01/13 08:24:53;;;;;;;10.20;4.30;;;;;;;-147.86;100.00;-17609.17;105562;1257;59755;-42
2024/01/13 08:27:20;;;;;;;5.50;3.70;;;;;;;-147.86;100.00;-17609.17;109194;1257;57772;-40
2024/01/13 08:29:48;;;;;;;9.50;4.00;;;;;;;-147.86;100.00;-17609.17;109222;1256;73088;-40
2024/01/13 08:32:16;;;;;;;9.60;3.90;;;;;;;-147.86;100.00;-17609.17;109247;1256;63887;-41
2024/01/13 08:34:43;;;;;;;9.50;3.10;;;;;;;-147.86;100.00;-17609.17;109183;1257;71722;-40
2024/01/13 08:37:11;;;;;;;8.00;3.00;;;;;;;-147.86;100.00;-17609.17;109173;1256;59649;-40
2024/01/13 08:39:39;;;;;;;9.40;4.00;;;;;;;-147.86;100.00;-17609.17;109229;1255;60156;-40
2024/01/13 08:42:06;;;;;;;6.90;4.40;;;;;;;-147.86;100.00;-17609.17;109236;1256;73056;-41
2024/01/13 08:44:34;;;;;;;7.00;3.30;;;;;;;-147.86;100.00;-17609.17;109211;1256;65343;-40
2024/01/13 08:47:02;;;;;;;9.50;4.10;;;;;;;-147.86;100.00;-17609.17;109273;1255;71126;-40
2024/01/13 08:49:29;;;;;;;8.60;4.20;;;;;;;-147.86;100.00;-17609.17;109208;1256;60862;-41
2024/01/13 08:51:57;;;;;;;5.00;3.70;;;;;;;-147.86;100.00;-17609.17;109236;1256;58722;-40
2024/01/13 08:54:24;;;;;;;7.00;3.90;;;;;;;-147.86;100.00;-17609.17;109278;1256;73548;-40
2024/01/13 08:56:52;;;;;;;7.80;4.30;;;;;;;-147.86;100.00;-17609.17;109216;1257;64006;-40
2024/01/13 08:59:20;;;;;;;9.70;3.70;;;;;;;-147.86;100.00;-17609.17;109226;1256;72724;-40
2024/01/13 09:01:47;;;;;;;8.40;3.50;;;;;;;-147.86;100.00;-17609.17;109176;1256;59573;-40
2024/01/13 09:07:34;;;;;;;13.60;5.20;;;;;;;-147.86;100.00;-17609.17;102666;1292;600528;-42
2024/01/13 09:10:02;;;;;;;9.90;4.00;;;;;;;-147.86;100.00;-17609.17;104858;1266;59279;-42
2024/01/13 09:12:30;;;;;;;9.00;4.30;;;;;;;-147.86;100.00;-17609.17;104869;1267;59977;-42
2024/01/13 09:14:58;;;;;;;7.40;3.80;;;;;;;-147.86;100.00;-17609.17;104845;1270;72416;-42
2024/01/13 09:17:26;;;;;;;9.60;3.80;;;;;;;-147.86;100.00;-17609.17;104839;1270;63904;-41
2024/01/13 09:19:54;;;;;;;8.80;4.50;;;;;;;-147.86;100.00;-17609.17;104839;1266;71378;-42
2024/01/13 09:22:21;;;;;;;14.30;4.50;;;;;;;-147.86;100.00;-17609.17;104827;1266;329796;-42
2024/01/13 09:24:49;;;;;;;8.20;4.00;;;;;;;-147.86;100.00;-17609.17;105047;1268;59359;-41
2024/01/13 09:27:17;;;;;;;7.50;4.30;;;;;;;-147.86;100.00;-17609.17;105056;1268;72236;-42
2024/01/13 09:29:45;;;;;;;7.70;3.60;;;;;;;-147.86;100.00;-17609.17;105050;1264;64046;-42
2024/01/13 09:32:13;;;;;;;8.90;3.40;;;;;;;-147.86;100.00;-17609.17;105088;1262;72288;-42
2024/01/13 09:34:41;;;;;;;10.10;3.60;;;;;;;-147.86;100.00;-17609.17;105015;1266;60771;-42
2024/01/13 09:37:10;;;;;;;8.40;3.70;;;;;;;-147.86;100.00;-17609.17;105093;1266;59696;-43
2024/01/13 09:39:38;;;;;;;5.40;3.10;;;;;;;-147.86;100.00;-17609.17;105239;1265;72643;-42
2024/01/13 09:42:06;;;;;;;7.80;3.60;;;;;;;-147.86;100.00;-17609.17;105187;1265;65151;-42
2024/01/13 09:44:34;;;;;;;8.30;3.70;;;;;;;-147.86;100.00;-17609.17;105172;1265;71404;-41
2024/01/13 09:47:02;;;;;;;12.60;3.60;;;;;;;-147.86;100.00;-17609.17;105236;1262;59927;-43
2024/01/13 09:49:30;;;;;;;9.90;3.70;;;;;;;-147.86;100.00;-17609.17;105235;1262;60037;-42
2024/01/13 09:52:05;;;;;;;9.20;2.80;;;;;;;-147.86;100.00;-17609.17;105189;1262;71839;-42
2024/01/13 09:54:33;;;;;;;8.80;3.70;;;;;;;-147.86;100.00;-17609.17;105242;1261;64167;-42
2024/01/13 09:57:01;;;;;;;8.30;4.00;;;;;;;-147.86;100.00;-17609.17;105210;1261;72810;-42
2024/01/13 09:59:29;;;;;;;6.90;3.30;;;;;;;-147.86;100.00;-17609.17;105202;1263;63154;-41
2024/01/13 10:02:01;;;;;;;8.10;3.20;;;;;;;-147.86;100.00;-17609.17;105270;1261;62128;-41
2024/01/13 10:04:30;;;;;;;6.40;3.00;;;;;;;-147.86;100.00;-17609.17;105264;1265;74994;-42
2024/01/13 10:06:58;;;;;;;7.90;3.50;;;;;;;-147.86;100.00;-17609.17;105182;1265;65022;-41
2024/01/13 10:09:26;;;;;;;6.70;3.20;;;;;;;-147.86;100.00;-17609.17;105179;1262;72590;-42
2024/01/13 10:12:06;;;;;;;10.40;3.40;;;;;;;-147.86;100.00;-17609.17;105187;1262;61147;-42
2024/01/13 10:14:40;;;;;;;8.30;3.50;;;;;;;-147.86;100.00;-17609.17;105205;1265;60604;-42
2024/01/13 10:17:13;;;;;;;8.50;4.10;;;;;;;-147.86;100.00;-17609.17;105169;1264;71851;-42
2024/01/13 10:19:41;;;;;;;7.50;4.20;;;;;;;-147.86;100.00;-17609.17;105205;1262;64017;-42
2024/01/13 10:22:11;;;;;;;6.70;3.30;;;;;;;-147.86;100.00;-17609.17;105243;1267;73625;-41
2024/01/13 10:24:39;;;;;;;8.20;4.30;;;;;;;-147.86;100.00;-17609.17;105185;1265;60861;-42
2024/01/13 10:27:09;;;;;;;13.60;4.90;;;;;;;-147.86;100.00;-17609.17;105229;1262;59858;-42
2024/01/13 11:07:23;;;;;;;8.30;4.80;;;;;;;-147.86;100.00;-17609.17;102742;1294;599557;-42
2024/01/13 11:09:51;;;;;;;6.80;4.50;;;;;;;-147.86;100.00;-17609.17;104885;1269;59528;-42
2024/01/13 11:12:24;;;;;;;18.50;9.50;;;;;;;-147.86;100.00;-17609.17;104863;1264;59985;-41
2024/01/13 11:15:03;;;;;;;9.20;5.50;;;;;;;-147.86;100.00;-17609.17;104876;1270;70982;-41
2024/01/13 11:17:33;;;;;;;7.30;4.30;;;;;;;-147.86;100.00;-17609.17;104853;1270;65192;-42
2024/01/13 11:20:04;;;;;;;67.80;31.30;;;;;;;-147.86;100.00;-17609.17;104693;1270;215879;-42
2024/01/13 11:22:33;;;;;;;20.90;9.50;;;;;;;-147.86;100.00;-17609.17;105062;1268;60475;-42
2024/01/13 11:25:26;;;;;;;;;;;;;;;-147.86;100.00;-17609.17;105118;1268;59598;-41
2024/01/13 11:27:59;;;;;;;8.10;4.20;;;;;;;-147.86;100.00;-17609.17;105174;1269;72312;-42
2024/01/13 11:30:41;;;;;;;7.70;3.90;;;;;;;-147.86;100.00;-17609.17;105150;1264;64004;-42
2024/01/13 11:33:10;;;;;;;10.10;4.50;;;;;;;-147.86;100.00;-17609.17;105094;1269;73131;-41
2024/01/13 11:35:39;;;;;;;7.80;4.10;;;;;;;-147.86;100.00;-17609.17;105095;1263;59695;-42
2024/01/13 11:38:07;;;;;;;8.30;5.20;;;;;;;-147.86;100.00;-17609.17;105566;1261;59582;-42
2024/01/13 11:40:36;;;;;;;10.10;4.80;;;;;;;-147.86;100.00;-17609.17;105584;1256;73000;-41
2024/01/13 11:43:18;;;;;;;12.10;5.70;;;;;;;-147.86;100.00;-17609.17;105350;1258;64332;-42
2024/01/13 11:45:48;;;;;;;11.00;5.00;;;;;;;-147.86;100.00;-17609.17;105560;1260;71386;-42
2024/01/13 11:48:39;;;;;;;10.50;5.10;;;;;;;-147.86;100.00;-17609.17;105596;1260;59760;-41
2024/01/13 11:51:13;;;;;;;12.00;5.10;;;;;;;-147.86;100.00;-17609.17;105628;1260;59558;-41
2024/01/13 11:53:46;;;;;;;11.10;5.60;;;;;;;-147.86;100.00;-17609.17;105591;1258;71775;-42
2024/01/13 11:56:16;;;;;;;13.10;5.50;;;;;;;-147.86;100.00;-17609.17;105568;1260;66022;-41
2024/01/13 11:58:44;;;;;;;8.90;5.00;;;;;;;-147.86;100.00;-17609.17;105551;1257;71996;-41
2024/01/13 12:01:12;;;;;;;17.50;5.60;;;;;;;-147.86;100.00;-17609.17;105542;1268;59737;-41
2024/01/13 12:03:41;;;;;;;15.50;5.50;;;;;;;-147.86;100.00;-17609.17;105628;1260;60052;-41
2024/01/13 12:06:10;;;;;;;12.10;6.00;;;;;;;-147.86;100.00;-17609.17;105565;1262;73109;-42
2024/01/13 12:08:39;;;;;;;16.00;5.80;;;;;;;-147.86;100.00;-17609.17;105494;1262;64947;-41
2024/01/13 12:11:07;;;;;;;11.40;5.90;;;;;;;-147.86;100.00;-17609.17;105455;1258;71401;-42
2024/01/13 12:13:35;;;;;;;15.40;6.20;;;;;;;-147.86;100.00;-17609.17;105485;1260;59730;-40
2024/01/13 12:16:04;;;;;;;18.60;7.00;;;;;;;-147.86;100.00;-17609.17;105128;1264;59752;-40
2024/01/13 12:18:33;;;;;;;16.20;7.10;;;;;;;-147.86;100.00;-17609.17;105158;1261;71146;-40
2024/01/13 12:21:02;;;;;;;16.40;7.50;;;;;;;-147.86;100.00;-17609.17;105131;1262;64756;-42
2024/01/13 12:23:30;;;;;;;15.40;7.20;;;;;;;-147.86;100.00;-17609.17;105429;1260;73442;-42
2024/01/13 12:25:59;;;;;;;15.80;7.40;;;;;;;-147.86;100.00;-17609.17;105496;1257;61472;-41
2024/01/13 12:28:41;;;;;;;19.60;8.10;;;;;;;-147.86;100.00;-17609.17;105556;1260;60528;-41
2024/01/13 12:31:11;;;;;;;15.40;7.50;;;;;;;-147.86;100.00;-17609.17;105510;1256;71866;-41
2024/01/13 12:33:39;;;;;;;25.00;8.50;;;;;;;-147.86;100.00;-17609.17;105572;1258;65777;-41
2024/01/13 12:36:11;;;;;;;17.70;7.70;;;;;;;-147.86;100.00;-17609.17;105501;1262;71303;-41
2024/01/13 12:38:40;;;;;;;16.50;8.00;;;;;;;-147.86;100.00;-17609.17;105484;1261;59812;-41
2024/01/13 12:41:09;;;;;;;19.70;7.40;;;;;;;-147.86;100.00;-17609.17;105530;1260;59654;-41
2024/01/13 12:43:41;;;;;;;14.20;6.90;;;;;;;-147.86;100.00;-17609.17;105506;1258;73007;-41
2024/01/13 12:46:09;;;;;;;19.90;7.80;;;;;;;-147.86;100.00;-17609.17;105527;1261;64843;-42
2024/01/13 12:48:37;;;;;;;19.00;8.00;;;;;;;-147.86;100.00;-17609.17;105514;1258;72068;-42
2024/01/13 12:51:09;;;;;;;16.90;7.50;;;;;;;-147.86;100.00;-17609.17;105573;1257;63598;-42